sensor_id;sensor_type;location;lat;lon;timestamp;temperature;humidity
46335;DHT22;32051;48.882;9.210;2022-07-24T11:25:12;35.30;69.90
46335;DHT22;32051;48.882;9.210;2022-07-24T11:28:00;35.30;68.80
46335;DHT22;32051;48.882;9.210;2022-07-24T11:30:42;35.70;69.70
46335;DHT22;32051;48.882;9.210;2022-07-24T11:33:10;36.20;68.20
46335;DHT22;32051;48.882;9.210;2022-07-24T11:35:37;36.70;66.50
46335;DHT22;32051;48.882;9.210;2022-07-24T11:45:27;37.00;66.30
46335;DHT22;32051;48.882;9.210;2022-07-24T11:47:53;38.30;63.70
46335;DHT22;32051;48.882;9.210;2022-07-24T11:50:25;37.50;61.60
46335;DHT22;32051;48.882;9.210;2022-07-24T11:52:51;37.60;65.20
46335;DHT22;32051;48.882;9.210;2022-07-24T11:55:21;37.80;63.10
46335;DHT22;32051;48.882;9.210;2022-07-24T11:57:53;37.70;63.50
46335;DHT22;32051;48.882;9.210;2022-07-24T12:00:25;37.80;62.40
46335;DHT22;32051;48.882;9.210;2022-07-24T12:02:57;38.20;62.60
46335;DHT22;32051;48.882;9.210;2022-07-24T12:05:28;38.40;60.30
46335;DHT22;32051;48.882;9.210;2022-07-24T12:07:55;37.90;59.80
46335;DHT22;32051;48.882;9.210;2022-07-24T12:10:25;37.90;61.20
46335;DHT22;32051;48.882;9.210;2022-07-24T12:12:53;38.10;59.80
46335;DHT22;32051;48.882;9.210;2022-07-24T12:15:23;38.50;60.70
46335;DHT22;32051;48.882;9.210;2022-07-24T12:18:04;38.80;60.80
46335;DHT22;32051;48.882;9.210;2022-07-24T12:20:50;39.00;59.10
46335;DHT22;32051;48.882;9.210;2022-07-24T12:23:16;39.10;59.00
46335;DHT22;32051;48.882;9.210;2022-07-24T12:25:44;39.00;57.70
46335;DHT22;32051;48.882;9.210;2022-07-24T12:30:48;38.80;59.10
46335;DHT22;32051;48.882;9.210;2022-07-24T12:35:57;39.10;57.70
46335;DHT22;32051;48.882;9.210;2022-07-24T12:38:40;39.20;59.50
46335;DHT22;32051;48.882;9.210;2022-07-24T12:41:11;39.40;59.20
46335;DHT22;32051;48.882;9.210;2022-07-24T12:43:52;39.80;59.30
46335;DHT22;32051;48.882;9.210;2022-07-24T12:46:23;40.40;57.10
46335;DHT22;32051;48.882;9.210;2022-07-24T12:56:19;40.80;56.60
46335;DHT22;32051;48.882;9.210;2022-07-24T12:59:01;40.80;56.90
46335;DHT22;32051;48.882;9.210;2022-07-24T13:01:45;40.90;55.90
46335;DHT22;32051;48.882;9.210;2022-07-24T13:04:12;41.20;54.60
46335;DHT22;32051;48.882;9.210;2022-07-24T13:06:43;41.40;55.70
46335;DHT22;32051;48.882;9.210;2022-07-24T13:09:10;41.70;55.40
46335;DHT22;32051;48.882;9.210;2022-07-24T13:11:37;41.90;54.20
46335;DHT22;32051;48.882;9.210;2022-07-24T13:14:05;42.00;54.00
46335;DHT22;32051;48.882;9.210;2022-07-24T13:16:32;42.00;52.80
46335;DHT22;32051;48.882;9.210;2022-07-24T13:18:59;41.80;52.30
46335;DHT22;32051;48.882;9.210;2022-07-24T13:21:25;41.60;53.30
46335;DHT22;32051;48.882;9.210;2022-07-24T13:23:51;41.50;53.40
46335;DHT22;32051;48.882;9.210;2022-07-24T13:26:18;41.40;53.60
46335;DHT22;32051;48.882;9.210;2022-07-24T13:28:44;41.40;53.40
46335;DHT22;32051;48.882;9.210;2022-07-24T13:31:10;41.40;52.90
46335;DHT22;32051;48.882;9.210;2022-07-24T13:33:35;41.60;53.10
46335;DHT22;32051;48.882;9.210;2022-07-24T13:36:01;41.80;53.40
46335;DHT22;32051;48.882;9.210;2022-07-24T13:38:27;41.90;53.50
46335;DHT22;32051;48.882;9.210;2022-07-24T13:40:52;42.00;53.40
46335;DHT22;32051;48.882;9.210;2022-07-24T13:43:18;42.10;52.80
46335;DHT22;32051;48.882;9.210;2022-07-24T13:45:44;41.90;52.20
46335;DHT22;32051;48.882;9.210;2022-07-24T13:48:09;41.70;51.50
46335;DHT22;32051;48.882;9.210;2022-07-24T13:50:36;41.60;53.50
46335;DHT22;32051;48.882;9.210;2022-07-24T13:53:01;41.30;52.60
46335;DHT22;32051;48.882;9.210;2022-07-24T13:55:27;41.10;52.30
46335;DHT22;32051;48.882;9.210;2022-07-24T13:57:53;40.80;52.10
46335;DHT22;32051;48.882;9.210;2022-07-24T14:00:18;40.70;53.40
46335;DHT22;32051;48.882;9.210;2022-07-24T14:02:44;40.80;53.20
46335;DHT22;32051;48.882;9.210;2022-07-24T14:05:10;40.80;52.90
46335;DHT22;32051;48.882;9.210;2022-07-24T14:07:36;40.80;52.80
46335;DHT22;32051;48.882;9.210;2022-07-24T14:10:02;41.20;52.80
46335;DHT22;32051;48.882;9.210;2022-07-24T14:12:28;41.20;52.00
46335;DHT22;32051;48.882;9.210;2022-07-24T14:14:54;41.20;52.20
46335;DHT22;32051;48.882;9.210;2022-07-24T14:17:20;40.90;52.20
46335;DHT22;32051;48.882;9.210;2022-07-24T14:19:46;40.70;52.60
46335;DHT22;32051;48.882;9.210;2022-07-24T14:22:11;40.70;52.00
46335;DHT22;32051;48.882;9.210;2022-07-24T14:24:37;40.70;52.30
46335;DHT22;32051;48.882;9.210;2022-07-24T14:27:03;40.90;51.80
46335;DHT22;32051;48.882;9.210;2022-07-24T14:29:29;41.20;52.00
46335;DHT22;32051;48.882;9.210;2022-07-24T14:31:54;41.50;51.30
46335;DHT22;32051;48.882;9.210;2022-07-24T14:34:20;41.90;51.80
46335;DHT22;32051;48.882;9.210;2022-07-24T14:36:46;42.10;51.30
46335;DHT22;32051;48.882;9.210;2022-07-24T14:39:12;42.30;51.10
46335;DHT22;32051;48.882;9.210;2022-07-24T14:41:37;42.30;51.30
46335;DHT22;32051;48.882;9.210;2022-07-24T14:44:04;42.20;49.90
46335;DHT22;32051;48.882;9.210;2022-07-24T14:46:30;42.20;50.60
46335;DHT22;32051;48.882;9.210;2022-07-24T14:48:55;42.20;51.10
46335;DHT22;32051;48.882;9.210;2022-07-24T14:51:21;42.40;51.00
46335;DHT22;32051;48.882;9.210;2022-07-24T14:53:47;42.60;51.10
46335;DHT22;32051;48.882;9.210;2022-07-24T14:56:12;42.50;50.70
46335;DHT22;32051;48.882;9.210;2022-07-24T14:58:38;42.40;50.60
46335;DHT22;32051;48.882;9.210;2022-07-24T15:01:04;42.30;50.30
46335;DHT22;32051;48.882;9.210;2022-07-24T15:03:30;42.30;50.10
46335;DHT22;32051;48.882;9.210;2022-07-24T15:05:56;42.00;50.00
46335;DHT22;32051;48.882;9.210;2022-07-24T15:08:22;41.90;51.10
46335;DHT22;32051;48.882;9.210;2022-07-24T15:10:47;41.60;50.60
46335;DHT22;32051;48.882;9.210;2022-07-24T15:13:13;41.10;50.80
46335;DHT22;32051;48.882;9.210;2022-07-24T15:15:39;40.20;51.00
46335;DHT22;32051;48.882;9.210;2022-07-24T15:18:04;39.30;52.50
